createdAt,value
2022-11-07T05:03:22.868Z,-89
2022-11-07T05:05:50.909Z,-89
2022-11-07T05:08:18.920Z,-89
2022-11-07T05:10:46.950Z,-89
2022-11-07T05:13:15.224Z,-91
2022-11-07T05:15:43.690Z,-78
2022-11-07T05:18:12.037Z,-78
2022-11-07T05:20:41.891Z,-80
2022-11-07T05:23:15.583Z,-79
2022-11-07T05:25:46.311Z,-80
2022-11-07T05:28:15.874Z,-79
2022-11-07T05:30:45.542Z,-79
2022-11-07T05:33:15.524Z,-81
2022-11-07T05:35:45.543Z,-81
2022-11-07T05:38:14.028Z,-81
2022-11-07T05:40:42.353Z,-82
2022-11-07T05:43:13.427Z,-81
2022-11-07T05:45:42.938Z,-81
2022-11-07T05:48:12.781Z,-82
2022-11-07T05:50:41.732Z,-81
2022-11-07T05:53:11.203Z,-80
2022-11-07T05:55:39.528Z,-80
2022-11-07T05:58:11.580Z,-80
2022-11-07T06:00:39.840Z,-81
2022-11-07T06:03:08.257Z,-80
2022-11-07T06:05:36.404Z,-80
2022-11-07T06:08:04.398Z,-81
2022-11-07T06:10:33.854Z,-81
2022-11-07T06:13:02.928Z,-81
2022-11-07T06:15:32.789Z,-81
2022-11-07T06:18:01.428Z,-81
2022-11-07T06:20:30.180Z,-81
2022-11-07T06:22:59.304Z,-84
2022-11-07T06:25:28.430Z,-84
2022-11-07T06:28:02.200Z,-83
2022-11-07T06:30:30.435Z,-82
2022-11-07T06:33:01.718Z,-83
2022-11-07T06:35:29.938Z,-83
2022-11-07T06:37:58.096Z,-84
2022-11-07T06:40:26.264Z,-85
2022-11-07T06:42:54.625Z,-84
2022-11-07T06:45:24.141Z,-84
2022-11-07T06:47:52.445Z,-83
2022-11-07T06:50:20.551Z,-82
2022-11-07T06:52:48.711Z,-83
2022-11-07T06:55:16.976Z,-84
2022-11-07T06:57:45.279Z,-83
2022-11-07T07:00:14.631Z,-83
2022-11-07T07:02:58.601Z,-83
2022-11-07T07:05:27.277Z,-84
2022-11-07T07:07:55.941Z,-83
2022-11-07T07:10:25.160Z,-84
2022-11-07T07:12:53.506Z,-83
2022-11-07T07:15:21.960Z,-83
2022-11-07T07:17:51.718Z,-83
2022-11-07T07:27:11.407Z,-84
2022-11-07T07:29:39.462Z,-83
2022-11-07T07:32:07.507Z,-84
2022-11-07T07:34:37.384Z,-84
2022-11-07T07:37:05.918Z,-84
2022-11-07T07:39:34.517Z,-84
2022-11-07T07:42:02.541Z,-83
2022-11-07T07:44:30.936Z,-84
2022-11-07T07:46:59.553Z,-83
2022-11-07T07:49:27.683Z,-83
2022-11-07T07:51:57.388Z,-83
2022-11-07T07:54:25.414Z,-83
2022-11-07T07:56:53.487Z,-83
2022-11-07T07:59:21.864Z,-83
2022-11-07T08:01:56.188Z,-84
2022-11-07T08:04:24.868Z,-83
2022-11-07T08:07:14.055Z,-84
2022-11-07T08:09:42.168Z,-83
2022-11-07T08:12:10.312Z,-83
2022-11-07T08:14:38.591Z,-83
2022-11-07T08:17:06.648Z,-84
2022-11-07T08:19:34.862Z,-84
2022-11-07T08:22:03.421Z,-83
2022-11-07T08:24:32.955Z,-84
2022-11-07T08:27:01.041Z,-83
2022-11-07T08:29:29.264Z,-84
2022-11-07T08:31:57.337Z,-84
2022-11-07T08:34:25.829Z,-87
2022-11-07T08:36:54.053Z,-86
2022-11-07T08:39:22.224Z,-87
2022-11-07T08:41:51.679Z,-89
2022-11-07T08:44:19.782Z,-88
2022-11-07T08:46:47.920Z,-87
2022-11-07T08:49:16.130Z,-88
2022-11-07T08:51:44.248Z,-86
2022-11-07T08:54:12.892Z,-86
2022-11-07T08:56:40.958Z,-87
2022-11-07T08:59:10.928Z,-88
2022-11-07T09:01:56.104Z,-87
2022-11-07T09:04:27.560Z,-87
2022-11-07T09:06:57.324Z,-88
2022-11-07T09:09:25.437Z,-87
2022-11-07T09:11:53.526Z,-88
2022-11-07T09:14:23.200Z,-88
2022-11-07T09:16:51.241Z,-88
2022-11-07T09:19:19.330Z,-87
2022-11-07T09:21:48.739Z,-88
2022-11-07T09:24:17.010Z,-86
2022-11-07T09:26:45.221Z,-87
2022-11-07T09:29:13.568Z,-86
2022-11-07T09:31:43.163Z,-86
2022-11-07T09:34:11.341Z,-87
2022-11-07T09:36:39.637Z,-87
2022-11-07T09:39:07.819Z,-88
2022-11-07T09:41:46.005Z,-86
2022-11-07T09:44:40.566Z,-87
2022-11-07T09:47:20.836Z,-86
2022-11-07T09:49:51.989Z,-87
2022-11-07T09:52:25.697Z,-87
2022-11-07T09:54:56.718Z,-87
2022-11-07T09:57:27.520Z,-87
2022-11-07T09:59:57.235Z,-86
2022-11-07T10:02:30.555Z,-86
2022-11-07T10:05:00.629Z,-85
2022-11-07T10:07:38.003Z,-86
2022-11-07T10:10:13.539Z,-88
2022-11-07T10:13:06.392Z,-87
2022-11-07T10:15:50.685Z,-84
2022-11-07T10:18:28.307Z,-85
2022-11-07T10:21:31.091Z,-85
2022-11-07T10:23:59.398Z,-84
2022-11-07T10:26:29.009Z,-85
2022-11-07T10:29:00.363Z,-85
2022-11-07T10:31:31.768Z,-83
2022-11-07T10:34:04.551Z,-84
2022-11-07T10:36:33.409Z,-84
2022-11-07T10:39:02.494Z,-84
2022-11-07T10:41:40.112Z,-84
2022-11-07T10:46:51.650Z,-90
2022-11-07T10:49:28.621Z,-89
2022-11-07T10:52:07.655Z,-87
2022-11-07T10:54:35.863Z,-92
2022-11-07T10:57:05.885Z,-85
2022-11-07T10:59:37.028Z,-82
2022-11-07T11:02:18.891Z,-81
2022-11-07T11:04:54.011Z,-80
2022-11-07T11:07:28.090Z,-81
2022-11-07T11:09:58.668Z,-82
2022-11-07T11:12:28.798Z,-82
2022-11-07T11:15:10.544Z,-81
2022-11-07T11:17:40.011Z,-81
2022-11-07T11:20:28.258Z,-81
2022-11-07T11:22:56.373Z,-82
2022-11-07T11:25:25.169Z,-82
2022-11-07T11:27:56.712Z,-83
2022-11-07T11:30:25.616Z,-82
2022-11-07T11:32:58.465Z,-83
2022-11-07T11:35:41.400Z,-83
2022-11-07T11:38:14.927Z,-83
2022-11-07T11:40:47.563Z,-82
2022-11-07T11:43:21.183Z,-81
2022-11-07T11:46:02.654Z,-83
2022-11-07T11:48:35.515Z,-83
2022-11-07T11:51:08.115Z,-88
2022-11-07T11:53:36.395Z,-85
2022-11-07T11:56:31.746Z,-88
2022-11-07T11:59:16.277Z,-88
2022-11-07T12:01:49.541Z,-88
2022-11-07T12:04:31.630Z,-89
2022-11-07T12:07:07.011Z,-88
2022-11-07T12:09:40.910Z,-87
2022-11-07T12:12:19.327Z,-88
2022-11-07T12:15:12.961Z,-87
2022-11-07T12:17:46.757Z,-88
2022-11-07T12:20:20.825Z,-87
2022-11-07T12:22:58.413Z,-88
2022-11-07T12:25:31.923Z,-88
2022-11-07T12:28:05.923Z,-87
2022-11-07T12:30:42.450Z,-87
2022-11-07T12:33:19.828Z,-87
2022-11-07T12:35:54.354Z,-87
2022-11-07T12:39:04.276Z,-87
2022-11-07T12:41:43.524Z,-84
2022-11-07T12:44:32.243Z,-88
2022-11-07T12:47:02.265Z,-86
2022-11-07T12:49:57.069Z,-87
2022-11-07T12:52:36.026Z,-86
2022-11-07T12:55:06.330Z,-88
2022-11-07T12:57:38.506Z,-87
2022-11-07T13:00:09.703Z,-91
2022-11-07T13:02:53.172Z,-89
2022-11-07T13:05:49.619Z,-86
2022-11-07T13:08:21.043Z,-89
2022-11-07T13:10:55.645Z,-85
2022-11-07T13:13:29.848Z,-87
2022-11-07T13:16:15.453Z,-87
2022-11-07T13:18:45.147Z,-87
2022-11-07T13:21:13.278Z,-86
2022-11-07T13:23:41.615Z,-87
2022-11-07T13:26:45.317Z,-87
2022-11-07T13:29:06.417Z,-86
2022-11-07T13:31:36.734Z,-87
2022-11-07T13:34:24.820Z,-87
2022-11-07T13:36:57.916Z,-86
2022-11-07T13:39:26.248Z,-87
2022-11-07T13:41:55.175Z,-86
2022-11-07T13:44:28.425Z,-87
2022-11-07T13:46:58.358Z,-87
2022-11-07T13:49:28.447Z,-87
2022-11-07T13:52:00.141Z,-87
2022-11-07T13:54:31.965Z,-87
2022-11-07T13:57:04.297Z,-87
2022-11-07T13:59:41.569Z,-86
2022-11-07T14:02:20.323Z,-87
2022-11-07T14:05:14.748Z,-88
2022-11-07T14:07:43.046Z,-87
2022-11-07T14:10:25.105Z,-88
2022-11-07T14:12:55.110Z,-87
2022-11-07T14:15:24.579Z,-89
2022-11-07T14:17:52.650Z,-89
2022-11-07T14:20:22.291Z,-89
2022-11-07T14:22:52.523Z,-89
2022-11-07T14:25:25.725Z,-87
2022-11-07T14:27:53.820Z,-89
2022-11-07T14:30:25.118Z,-89
2022-11-07T14:32:54.972Z,-88
2022-11-07T14:35:25.221Z,-88
2022-11-07T14:37:53.649Z,-87
2022-11-07T14:40:21.872Z,-89
2022-11-07T14:42:50.189Z,-88
2022-11-07T14:45:39.107Z,-90
2022-11-07T14:48:11.861Z,-89
2022-11-07T14:50:40.323Z,-88
2022-11-07T14:53:10.761Z,-89
2022-11-07T14:55:46.490Z,-88
2022-11-07T14:58:16.097Z,-90
2022-11-07T15:00:56.982Z,-88
2022-11-07T15:03:33.421Z,-89
2022-11-07T15:06:03.149Z,-88
2022-11-07T15:08:33.524Z,-88
2022-11-07T15:11:04.849Z,-88
2022-11-07T15:13:34.447Z,-88
2022-11-07T15:16:04.985Z,-90
2022-11-07T15:18:38.112Z,-92
2022-11-07T15:21:07.038Z,-91
2022-11-07T15:23:36.850Z,-89
2022-11-07T15:26:13.770Z,-88
2022-11-07T15:28:47.144Z,-91
2022-11-07T15:31:23.972Z,-91
2022-11-07T15:33:55.908Z,-91
2022-11-07T15:36:24.884Z,-89
2022-11-07T15:38:54.114Z,-90
2022-11-07T15:41:23.261Z,-89
2022-11-07T15:43:52.031Z,-89
2022-11-07T15:46:26.574Z,-90
2022-11-07T15:48:57.494Z,-93
2022-11-07T15:51:26.623Z,-94
2022-11-07T15:53:55.877Z,-94
2022-11-07T15:56:27.192Z,-94
2022-11-07T15:58:55.860Z,-93
2022-11-07T16:01:25.895Z,-94
2022-11-07T16:03:57.338Z,-94
2022-11-07T16:06:30.606Z,-81
2022-11-07T16:08:59.558Z,-87
2022-11-07T16:11:32.880Z,-88
2022-11-07T16:14:34.455Z,-89
2022-11-07T16:16:53.901Z,-89
2022-11-07T16:19:27.743Z,-88
2022-11-07T16:21:56.098Z,-88
2022-11-07T16:24:24.834Z,-87
2022-11-07T16:26:55.988Z,-90
2022-11-07T16:29:24.909Z,-89
2022-11-07T16:31:53.540Z,-88
2022-11-07T16:34:27.429Z,-88
2022-11-07T16:36:56.242Z,-88
2022-11-07T16:39:25.105Z,-89
2022-11-07T16:41:57.667Z,-89
2022-11-07T16:44:26.623Z,-90
2022-11-07T16:46:56.545Z,-88
2022-11-07T16:49:30.789Z,-87
2022-11-07T16:52:01.288Z,-86
2022-11-07T16:54:39.115Z,-86
2022-11-07T16:57:19.215Z,-88
2022-11-07T16:59:48.243Z,-88
2022-11-07T17:02:21.169Z,-84
2022-11-07T17:04:52.331Z,-84
2022-11-07T17:07:23.276Z,-83
2022-11-07T17:10:03.778Z,-83
2022-11-07T17:12:32.292Z,-83
2022-11-07T17:15:01.080Z,-82
2022-11-07T17:17:30.046Z,-82
2022-11-07T17:20:00.871Z,-82
2022-11-07T17:22:30.824Z,-82
2022-11-07T17:25:10.813Z,-82
2022-11-07T17:27:43.369Z,-82
2022-11-07T17:30:14.937Z,-82
2022-11-07T17:32:43.029Z,-82
2022-11-07T17:38:01.912Z,-83
2022-11-07T17:40:34.082Z,-82
2022-11-07T17:43:02.505Z,-82
2022-11-07T17:45:30.600Z,-83
2022-11-07T17:47:59.357Z,-84
2022-11-07T17:50:31.890Z,-81
2022-11-07T17:53:00.481Z,-82
2022-11-07T17:55:31.777Z,-83
2022-11-07T17:58:05.428Z,-83
2022-11-07T18:00:35.407Z,-82
2022-11-07T18:03:03.975Z,-83
2022-11-07T18:05:34.837Z,-83
2022-11-07T18:08:03.467Z,-80
2022-11-07T18:10:33.584Z,-81
2022-11-07T18:13:02.029Z,-81
2022-11-07T18:15:30.222Z,-81
2022-11-07T18:17:59.158Z,-81
2022-11-07T18:20:29.418Z,-82
2022-11-07T18:23:00.600Z,-81
2022-11-07T18:25:31.095Z,-82
2022-11-07T18:27:59.426Z,-83
2022-11-07T18:30:27.989Z,-84
2022-11-07T18:32:56.788Z,-84
2022-11-07T18:35:25.297Z,-82
2022-11-07T18:37:53.881Z,-83
2022-11-07T18:40:23.928Z,-83
2022-11-07T18:42:52.122Z,-82
2022-11-07T18:45:20.528Z,-82
2022-11-07T18:47:48.955Z,-83
2022-11-07T18:50:17.250Z,-84
2022-11-07T18:52:45.870Z,-85
2022-11-07T18:55:14.585Z,-84
2022-11-07T18:57:44.849Z,-83
2022-11-07T19:00:15.166Z,-82
2022-11-07T19:02:44.544Z,-83
2022-11-07T19:05:12.877Z,-83
2022-11-07T19:07:44.961Z,-83
2022-11-07T19:10:13.532Z,-83
2022-11-07T19:12:53.853Z,-83
2022-11-07T19:15:24.990Z,-83
2022-11-07T19:17:53.414Z,-82
2022-11-07T19:20:22.194Z,-82
2022-11-07T19:22:51.167Z,-82
2022-11-07T19:25:21.447Z,-84
2022-11-07T19:28:04.292Z,-84
2022-11-07T19:30:33.453Z,-84
2022-11-07T19:33:03.500Z,-84
2022-11-07T19:35:32.582Z,-86
2022-11-07T19:38:04.863Z,-86
2022-11-07T19:40:36.742Z,-84
2022-11-07T19:43:09.423Z,-86
2022-11-07T19:45:42.160Z,-86
2022-11-07T19:48:12.065Z,-85
2022-11-07T19:50:41.979Z,-84
2022-11-07T19:53:10.587Z,-83
2022-11-07T19:55:39.302Z,-84
2022-11-07T19:58:09.240Z,-84
2022-11-07T20:00:38.905Z,-86
2022-11-07T20:03:08.270Z,-86
2022-11-07T20:05:40.078Z,-85
2022-11-07T20:08:10.908Z,-85
2022-11-07T20:10:40.543Z,-86
2022-11-07T20:13:10.479Z,-85
2022-11-07T20:15:41.902Z,-85
2022-11-07T20:18:11.364Z,-84
2022-11-07T20:20:40.039Z,-84
2022-11-07T20:23:08.624Z,-84
2022-11-07T20:25:37.919Z,-84
2022-11-07T20:28:06.380Z,-84
2022-11-07T20:30:36.612Z,-84
2022-11-07T20:33:07.351Z,-82
2022-11-07T20:35:35.674Z,-84
2022-11-07T20:38:05.958Z,-84
2022-11-07T20:40:35.640Z,-83
2022-11-07T20:43:05.528Z,-85
2022-11-07T20:45:35.628Z,-86
2022-11-07T20:48:05.092Z,-85
2022-11-07T20:50:33.695Z,-85
2022-11-07T20:53:02.131Z,-89
2022-11-07T20:55:30.716Z,-89
2022-11-07T20:58:00.828Z,-90
2022-11-07T21:00:30.187Z,-90
2022-11-07T21:03:02.070Z,-92
2022-11-07T21:05:31.641Z,-91
2022-11-07T21:08:01.043Z,-92
2022-11-07T21:10:30.074Z,-91
2022-11-07T21:12:59.434Z,-91
2022-11-07T21:15:27.893Z,-83
2022-11-07T21:17:56.628Z,-82
2022-11-07T21:20:28.792Z,-83
2022-11-07T21:22:57.524Z,-83
2022-11-07T21:25:25.981Z,-83
2022-11-07T21:27:54.742Z,-82
2022-11-07T21:30:23.326Z,-83
2022-11-07T21:32:52.704Z,-81
2022-11-07T21:35:23.071Z,-91
2022-11-07T21:37:53.344Z,-90
2022-11-07T21:40:23.205Z,-91
2022-11-07T21:42:54.991Z,-93
2022-11-07T21:45:23.996Z,-91
2022-11-07T21:47:52.249Z,-91
2022-11-07T21:50:42.753Z,-91
2022-11-07T21:53:11.220Z,-91
2022-11-07T21:55:39.734Z,-91
2022-11-07T21:58:08.161Z,-90
2022-11-07T22:00:37.158Z,-92
2022-11-07T22:03:16.542Z,-91
2022-11-07T22:05:45.935Z,-91
2022-11-07T22:08:21.061Z,-92
2022-11-07T22:10:51.857Z,-91
2022-11-07T22:13:20.525Z,-91
2022-11-07T22:15:49.896Z,-92
2022-11-07T22:18:17.936Z,-92
2022-11-07T22:20:46.044Z,-92
2022-11-07T22:23:16.059Z,-92
2022-11-07T22:25:44.403Z,-91
2022-11-07T22:28:12.540Z,-92
2022-11-07T22:30:40.684Z,-91
2022-11-07T22:33:08.761Z,-92
2022-11-07T22:35:36.835Z,-91
2022-11-07T22:38:04.895Z,-92
2022-11-07T22:40:34.359Z,-90
2022-11-07T22:43:02.708Z,-92
2022-11-07T22:45:30.873Z,-89
2022-11-07T22:47:58.983Z,-93
